createdAt,value
2018-03-26T00:02:16.539Z,49.97
2018-03-26T00:04:44.058Z,47.83
2018-03-26T00:07:11.616Z,49.93
2018-03-26T00:09:39.165Z,46.40
2018-03-26T00:12:06.692Z,47.63
2018-03-26T00:14:34.248Z,52.17
2018-03-26T00:17:01.780Z,49.67
2018-03-26T00:19:29.310Z,48.97
2018-03-26T00:21:56.836Z,46.70
2018-03-26T00:24:24.358Z,45.03
2018-03-26T00:26:51.878Z,46.67
2018-03-26T00:29:19.410Z,48.27
2018-03-26T00:31:46.935Z,46.83
2018-03-26T00:34:14.465Z,43.50
2018-03-26T00:36:41.995Z,48.13
2018-03-26T00:39:09.524Z,44.07
2018-03-26T00:41:37.070Z,46.37
2018-03-26T00:44:04.598Z,45.93
2018-03-26T00:46:32.127Z,47.93
2018-03-26T00:48:59.653Z,47.50
2018-03-26T00:51:27.193Z,44.00
2018-03-26T00:53:54.713Z,46.40
2018-03-26T00:56:22.224Z,46.40
2018-03-26T00:58:49.760Z,48.30
2018-03-26T01:01:17.283Z,47.80
2018-03-26T01:03:44.815Z,47.13
2018-03-26T01:06:12.352Z,49.10
2018-03-26T01:08:39.875Z,44.50
2018-03-26T01:11:07.450Z,49.57
2018-03-26T01:13:34.977Z,47.33
2018-03-26T01:16:02.510Z,50.07
2018-03-26T01:18:30.035Z,47.33
2018-03-26T01:20:57.555Z,48.23
2018-03-26T01:23:25.069Z,44.73
2018-03-26T01:25:52.622Z,46.67
2018-03-26T01:28:20.154Z,50.63
2018-03-26T01:30:47.666Z,46.97
2018-03-26T01:33:15.203Z,47.43
2018-03-26T01:35:42.735Z,48.73
2018-03-26T01:38:10.272Z,46.90
2018-03-26T01:40:37.803Z,46.53
2018-03-26T01:43:05.334Z,47.87
2018-03-26T01:45:32.880Z,44.97
2018-03-26T01:48:00.413Z,41.33
2018-03-26T01:50:27.938Z,43.20
2018-03-26T01:52:55.469Z,44.27
2018-03-26T01:55:23.008Z,41.67
2018-03-26T01:57:50.546Z,40.10
2018-03-26T02:00:18.091Z,37.93
2018-03-26T02:02:45.634Z,37.63
2018-03-26T02:05:13.154Z,40.57
2018-03-26T02:07:40.683Z,34.33
2018-03-26T02:10:08.202Z,39.00
2018-03-26T02:12:35.771Z,38.20
2018-03-26T02:15:03.331Z,37.00
2018-03-26T02:17:30.870Z,38.57
2018-03-26T02:19:58.402Z,35.97
2018-03-26T02:22:25.945Z,41.67
2018-03-26T02:24:53.474Z,38.80
2018-03-26T02:27:21.009Z,39.40
2018-03-26T02:29:48.592Z,42.97
2018-03-26T02:32:16.128Z,39.07
2018-03-26T02:34:43.662Z,39.17
2018-03-26T02:37:11.198Z,42.13
2018-03-26T02:39:38.714Z,42.80
2018-03-26T02:42:06.237Z,44.13
2018-03-26T02:44:33.798Z,41.07
2018-03-26T02:47:01.350Z,40.47
2018-03-26T02:49:28.883Z,42.40
2018-03-26T02:51:56.404Z,45.40
2018-03-26T02:54:23.947Z,41.27
2018-03-26T02:56:51.460Z,40.30
2018-03-26T02:59:19.001Z,40.60
2018-03-26T03:01:46.540Z,40.53
2018-03-26T03:04:14.088Z,45.97
2018-03-26T03:06:41.618Z,43.63
2018-03-26T03:09:09.168Z,40.63
2018-03-26T03:11:36.697Z,43.33
2018-03-26T03:14:04.212Z,41.90
2018-03-26T03:16:31.750Z,40.37
2018-03-26T03:18:59.292Z,41.60
2018-03-26T03:21:26.813Z,41.67
2018-03-26T03:23:54.361Z,41.20
2018-03-26T03:26:21.882Z,44.70
2018-03-26T03:28:49.481Z,41.53
2018-03-26T03:31:17.013Z,41.13
2018-03-26T03:33:44.549Z,40.57
2018-03-26T03:36:12.071Z,43.03
2018-03-26T03:38:39.618Z,40.00
2018-03-26T03:41:07.145Z,43.70
2018-03-26T03:43:34.670Z,44.47
2018-03-26T03:46:02.204Z,41.53
2018-03-26T03:48:29.723Z,40.93
2018-03-26T03:50:57.303Z,46.33
2018-03-26T03:53:24.809Z,40.07
2018-03-26T03:55:52.368Z,43.90
2018-03-26T03:58:19.902Z,42.80
2018-03-26T04:00:47.421Z,44.67
2018-03-26T04:03:14.947Z,42.20
2018-03-26T04:05:42.501Z,42.50
2018-03-26T04:08:10.025Z,43.33
2018-03-26T04:10:37.544Z,42.37
2018-03-26T04:13:05.074Z,44.43
2018-03-26T04:15:32.606Z,41.57
2018-03-26T04:18:00.136Z,43.93
2018-03-26T04:20:27.664Z,45.40
2018-03-26T04:22:55.236Z,44.17
2018-03-26T04:25:22.815Z,44.10
2018-03-26T04:27:50.341Z,42.67
2018-03-26T04:30:17.918Z,43.67
2018-03-26T04:32:45.451Z,41.97
2018-03-26T04:35:12.980Z,42.30
2018-03-26T04:37:40.511Z,43.43
2018-03-26T04:40:08.030Z,42.63
2018-03-26T04:42:35.554Z,43.67
2018-03-26T04:45:03.104Z,39.67
2018-03-26T04:47:30.709Z,40.47
2018-03-26T04:49:58.249Z,42.57
2018-03-26T04:52:25.766Z,50.63
2018-03-26T04:54:53.290Z,55.67
2018-03-26T04:57:20.820Z,43.70
2018-03-26T04:59:48.368Z,44.87
2018-03-26T05:02:15.927Z,46.27
2018-03-26T05:04:43.426Z,42.30
2018-03-26T05:07:10.962Z,46.00
2018-03-26T05:09:38.486Z,44.03
2018-03-26T05:12:06.025Z,45.20
2018-03-26T05:14:33.536Z,46.63
2018-03-26T05:17:01.067Z,44.17
2018-03-26T05:19:28.607Z,43.10
2018-03-26T06:43:53.097Z,51.53
2018-03-26T06:46:20.610Z,49.53
2018-03-26T06:48:48.125Z,55.10
2018-03-26T06:51:15.638Z,50.70
2018-03-26T06:53:43.318Z,52.07
2018-03-26T06:56:10.841Z,52.37
2018-03-26T06:58:38.402Z,48.10
2018-03-26T07:01:05.926Z,50.03
2018-03-26T07:03:33.454Z,50.07
2018-03-26T07:06:00.977Z,46.87
2018-03-26T07:08:28.511Z,48.37
2018-03-26T07:10:56.031Z,44.93
2018-03-26T07:13:23.549Z,44.90
2018-03-26T07:15:51.083Z,46.70
2018-03-26T07:18:18.610Z,49.60
2018-03-26T07:20:46.135Z,49.00
2018-03-26T07:23:13.654Z,50.97
2018-03-26T07:25:41.170Z,48.30
2018-03-26T07:28:08.720Z,46.23
2018-03-26T07:30:36.273Z,46.37
2018-03-26T07:33:03.792Z,41.97
2018-03-26T07:35:31.333Z,43.03
2018-03-26T07:37:58.858Z,46.50
2018-03-26T07:40:26.401Z,45.20
2018-03-26T07:42:53.925Z,51.33
2018-03-26T07:45:21.449Z,45.80
2018-03-26T07:47:48.979Z,43.77
2018-03-26T07:50:16.504Z,46.80
2018-03-26T07:52:44.041Z,47.30
2018-03-26T07:55:11.569Z,47.20
2018-03-26T07:57:39.087Z,44.43
2018-03-26T08:00:06.618Z,43.77
2018-03-26T08:02:34.145Z,48.00
2018-03-26T08:05:01.662Z,44.53
2018-03-26T08:07:29.195Z,48.10
2018-03-26T08:09:56.778Z,40.13
2018-03-26T08:12:24.266Z,49.97
2018-03-26T08:14:51.808Z,49.85
2018-03-26T08:17:19.374Z,51.57
2018-03-26T08:19:46.880Z,52.50
2018-03-26T08:22:14.392Z,50.40
2018-03-26T08:24:41.913Z,53.33
2018-03-26T08:27:09.445Z,61.07
2018-03-26T08:29:36.958Z,53.60
2018-03-26T08:32:04.475Z,52.33
2018-03-26T08:34:31.997Z,55.73
2018-03-26T08:36:59.540Z,52.50
2018-03-26T08:39:27.066Z,56.23
2018-03-26T08:41:54.583Z,56.73
2018-03-26T08:44:22.111Z,52.93
2018-03-26T08:46:49.640Z,57.70
2018-03-26T08:49:17.178Z,53.40
2018-03-26T08:51:44.696Z,60.57
2018-03-26T08:54:12.223Z,56.90
2018-03-26T08:56:39.754Z,56.77
2018-03-26T08:59:07.280Z,56.73
2018-03-26T09:01:34.819Z,60.37
2018-03-26T09:04:02.370Z,58.10
2018-03-26T09:06:29.889Z,61.77
2018-03-26T09:08:57.418Z,60.43
2018-03-26T09:11:24.940Z,64.50
2018-03-26T09:13:52.466Z,61.07
2018-03-26T09:16:19.988Z,63.90
2018-03-26T09:18:47.521Z,63.23
2018-03-26T09:21:15.058Z,64.10
2018-03-26T09:23:42.734Z,61.47
2018-03-26T09:26:10.262Z,64.40
2018-03-26T09:28:37.791Z,64.37
2018-03-26T09:31:05.364Z,64.60
2018-03-26T09:33:32.896Z,64.80
2018-03-26T09:36:00.538Z,61.13
2018-03-26T09:38:28.063Z,66.23
2018-03-26T09:40:55.591Z,62.97
2018-03-26T09:43:23.110Z,68.17
2018-03-26T09:45:50.633Z,67.03
2018-03-26T09:48:18.168Z,63.83
2018-03-26T09:50:45.695Z,70.80
2018-03-26T09:53:13.259Z,64.93
2018-03-26T09:55:40.770Z,66.50
2018-03-26T09:58:08.337Z,69.97
2018-03-26T10:00:41.534Z,67.00
2018-03-26T10:03:09.053Z,69.47
2018-03-26T10:05:36.566Z,74.03
2018-03-26T10:08:04.163Z,65.50
2018-03-26T10:10:31.706Z,66.50
2018-03-26T10:12:59.261Z,68.00
2018-03-26T10:15:26.818Z,71.90
2018-03-26T10:17:54.341Z,77.33
2018-03-26T10:20:21.869Z,70.63
2018-03-26T10:22:49.399Z,77.67
2018-03-26T10:25:16.971Z,73.20
2018-03-26T10:27:45.274Z,74.57
2018-03-26T10:30:12.795Z,70.23
2018-03-26T10:32:40.326Z,75.53
2018-03-26T10:35:07.855Z,83.63
2018-03-26T10:37:35.370Z,73.70
2018-03-26T10:40:02.899Z,73.70
2018-03-26T10:42:30.436Z,78.43
2018-03-26T10:44:57.955Z,74.60
2018-03-26T10:47:25.535Z,76.03
2018-03-26T10:49:53.066Z,71.73
2018-03-26T10:52:20.598Z,80.53
2018-03-26T10:54:48.139Z,76.33
2018-03-26T10:57:15.675Z,84.37
2018-03-26T10:59:43.210Z,85.47
2018-03-26T11:02:10.725Z,84.80
2018-03-26T11:04:38.245Z,85.83
2018-03-26T11:07:05.764Z,82.17
2018-03-26T11:09:33.285Z,74.47
2018-03-26T11:12:00.807Z,67.93
2018-03-26T12:36:25.326Z,79.33
2018-03-26T12:38:52.858Z,75.40
2018-03-26T12:41:20.404Z,67.93
2018-03-26T12:43:47.943Z,58.73
2018-03-26T12:46:27.252Z,70.45
2018-03-26T12:48:54.772Z,66.97
2018-03-26T12:51:34.184Z,67.97
2018-03-26T12:54:01.734Z,64.90
2018-03-26T12:56:29.264Z,59.97
2018-03-26T12:58:56.786Z,66.80
2018-03-26T13:01:36.087Z,52.97
2018-03-26T13:04:03.618Z,53.70
2018-03-26T13:06:31.138Z,51.37
2018-03-26T13:08:58.665Z,42.17
2018-03-26T13:11:26.195Z,45.97
2018-03-26T13:13:53.715Z,42.23
2018-03-26T13:16:21.241Z,41.13
2018-03-26T13:18:48.762Z,36.27
2018-03-26T13:21:16.285Z,33.87
2018-03-26T13:23:43.828Z,34.23
2018-03-26T13:26:11.378Z,37.43
2018-03-26T13:28:38.905Z,35.20
2018-03-26T13:31:06.421Z,34.00
2018-03-26T13:33:33.961Z,36.30
2018-03-26T13:36:01.491Z,33.20
2018-03-26T13:38:29.043Z,34.80
2018-03-26T13:40:56.592Z,37.10
2018-03-26T13:43:24.123Z,36.57
2018-03-26T13:45:51.652Z,30.90
2018-03-26T13:48:19.187Z,24.40
2018-03-26T13:50:46.745Z,41.90
2018-03-26T13:53:14.262Z,24.17
2018-03-26T13:55:41.784Z,26.27
2018-03-26T13:58:09.323Z,29.63
2018-03-26T14:00:36.844Z,26.67
2018-03-26T14:03:04.368Z,26.03
2018-03-26T14:05:31.885Z,25.40
2018-03-26T14:07:59.409Z,27.27
2018-03-26T14:10:38.658Z,32.07
2018-03-26T14:13:18.078Z,24.97
2018-03-26T14:15:57.537Z,22.80
2018-03-26T14:18:25.107Z,25.53
2018-03-26T14:20:52.620Z,20.47
2018-03-26T14:23:20.178Z,25.57
2018-03-26T14:25:47.708Z,19.03
2018-03-26T14:28:15.221Z,22.67
2018-03-26T14:30:42.755Z,23.60
2018-03-26T14:33:10.288Z,23.27
2018-03-26T14:35:44.937Z,19.33
2018-03-26T14:38:12.785Z,20.03
2018-03-26T14:40:40.333Z,24.37
2018-03-26T14:43:07.906Z,20.60
2018-03-26T14:45:35.404Z,20.90
2018-03-26T14:48:02.940Z,22.00
2018-03-26T14:50:30.472Z,22.87
2018-03-26T14:52:57.989Z,21.67
2018-03-26T14:55:25.577Z,23.07
2018-03-26T14:57:53.085Z,23.70
2018-03-26T15:00:20.613Z,24.17
2018-03-26T15:02:48.156Z,21.17
2018-03-26T15:05:15.686Z,20.90
2018-03-26T15:07:43.231Z,18.10
2018-03-26T15:10:10.747Z,22.90
2018-03-26T15:12:38.268Z,20.47
2018-03-26T15:15:05.800Z,18.57
2018-03-26T15:17:33.322Z,21.00
2018-03-26T15:20:00.854Z,16.63
2018-03-26T15:22:28.398Z,13.60
2018-03-26T15:24:55.937Z,13.23
2018-03-26T15:27:23.539Z,12.97
2018-03-26T15:29:51.025Z,11.77
2018-03-26T15:32:18.551Z,13.70
2018-03-26T15:34:46.099Z,10.53
2018-03-26T15:37:13.632Z,11.93
2018-03-26T15:39:41.161Z,13.47
2018-03-26T15:42:08.684Z,15.10
2018-03-26T15:44:36.217Z,15.23
2018-03-26T15:47:03.737Z,14.30
2018-03-26T15:49:31.258Z,12.40
2018-03-26T15:51:58.787Z,13.03
2018-03-26T15:54:26.309Z,11.87
2018-03-26T15:56:53.837Z,16.17
2018-03-26T15:59:21.368Z,12.73
2018-03-26T16:01:48.889Z,12.73
2018-03-26T16:04:16.414Z,12.40
2018-03-26T16:06:43.946Z,14.37
2018-03-26T16:09:11.469Z,13.33
2018-03-26T16:11:38.985Z,11.60
2018-03-26T16:14:06.505Z,16.13
2018-03-26T16:16:34.034Z,12.73
2018-03-26T16:19:01.594Z,13.27
2018-03-26T16:21:29.113Z,11.33
2018-03-26T16:23:56.663Z,11.63
2018-03-26T16:26:24.173Z,13.13
2018-03-26T16:28:51.697Z,13.87
2018-03-26T16:31:19.217Z,12.17
2018-03-26T16:33:46.819Z,11.90
2018-03-26T16:36:14.356Z,16.47
2018-03-26T16:38:41.881Z,13.53
2018-03-26T16:41:09.413Z,14.13
2018-03-26T16:43:36.946Z,14.30
2018-03-26T16:46:04.459Z,14.10
2018-03-26T16:48:31.991Z,15.30
2018-03-26T16:50:59.517Z,15.83
2018-03-26T16:53:27.039Z,16.20
2018-03-26T16:55:54.554Z,14.83
2018-03-26T16:58:22.070Z,11.47
2018-03-26T17:00:49.597Z,16.03
2018-03-26T17:03:17.117Z,14.83
2018-03-26T17:05:44.650Z,15.60
2018-03-26T17:08:12.211Z,14.13
2018-03-26T17:10:39.726Z,15.80
2018-03-26T17:13:07.253Z,14.80
2018-03-26T17:15:34.771Z,14.33
2018-03-26T17:18:02.303Z,12.87
2018-03-26T17:20:29.859Z,16.70
2018-03-26T17:22:57.390Z,14.50
2018-03-26T17:25:24.929Z,15.07
2018-03-26T17:27:52.454Z,12.80
2018-03-26T17:30:19.976Z,14.57
2018-03-26T17:32:47.498Z,15.53
2018-03-26T17:35:15.018Z,15.60
2018-03-26T17:37:42.542Z,17.07
2018-03-26T17:40:10.055Z,14.97
2018-03-26T17:42:37.573Z,16.10
2018-03-26T17:45:05.097Z,16.33
2018-03-26T17:47:32.611Z,14.90
2018-03-26T17:50:00.132Z,11.87
2018-03-26T17:52:27.659Z,14.63
2018-03-26T17:54:55.205Z,14.10
2018-03-26T17:57:22.732Z,12.63
2018-03-26T17:59:50.249Z,16.80
2018-03-26T18:02:17.765Z,14.37
2018-03-26T18:04:45.282Z,11.37
2018-03-26T18:07:12.812Z,13.90
2018-03-26T18:09:40.364Z,15.63
2018-03-26T18:12:07.878Z,18.43
2018-03-26T18:14:35.412Z,17.80
2018-03-26T18:17:02.940Z,20.13
2018-03-26T18:19:30.477Z,20.57
2018-03-26T18:21:58.001Z,17.93
2018-03-26T18:24:25.533Z,17.07
2018-03-26T18:26:53.064Z,14.30
2018-03-26T18:29:20.581Z,14.93
2018-03-26T18:31:48.094Z,19.07
2018-03-26T18:34:15.623Z,14.57
2018-03-26T18:36:43.157Z,15.03
2018-03-26T18:39:10.669Z,15.63
2018-03-26T18:41:38.185Z,15.87
2018-03-26T18:44:05.704Z,15.60
2018-03-26T18:46:33.226Z,15.20
2018-03-26T18:49:00.759Z,14.90
2018-03-26T18:51:28.282Z,16.73
2018-03-26T18:53:55.793Z,16.03
2018-03-26T18:56:23.330Z,13.33
2018-03-26T18:58:50.844Z,16.60
2018-03-26T19:01:18.381Z,17.13
2018-03-26T19:03:45.910Z,14.30
2018-03-26T19:06:13.424Z,12.70
2018-03-26T19:08:40.958Z,14.33
2018-03-26T19:11:08.473Z,14.70
2018-03-26T19:13:35.985Z,14.07
2018-03-26T19:16:03.524Z,13.80
2018-03-26T19:18:31.046Z,13.83
2018-03-26T19:20:58.562Z,12.90
2018-03-26T19:23:26.082Z,14.77
2018-03-26T19:25:53.607Z,14.30
2018-03-26T19:28:21.128Z,16.10
2018-03-26T19:30:48.655Z,15.77
2018-03-26T19:33:16.187Z,16.07
2018-03-26T19:35:43.702Z,16.30
2018-03-26T19:38:11.217Z,20.27
2018-03-26T19:40:38.734Z,14.93
2018-03-26T19:43:06.270Z,15.40
2018-03-26T19:45:33.783Z,14.80
2018-03-26T19:48:01.310Z,17.30
2018-03-26T19:50:28.836Z,15.87
2018-03-26T19:52:56.345Z,16.20
2018-03-26T19:55:23.886Z,16.90
2018-03-26T19:57:51.411Z,14.90
2018-03-26T20:00:18.944Z,16.50
2018-03-26T20:02:46.461Z,16.57
2018-03-26T20:05:13.993Z,15.90
2018-03-26T20:07:41.519Z,15.50
2018-03-26T20:10:09.042Z,16.67
2018-03-26T20:12:36.569Z,15.23
2018-03-26T20:15:04.091Z,17.87
2018-03-26T20:17:31.625Z,14.03
2018-03-26T20:19:59.148Z,16.47
2018-03-26T20:22:26.678Z,15.37
2018-03-26T20:24:54.206Z,17.43
2018-03-26T20:27:21.731Z,14.27
2018-03-26T20:29:49.268Z,18.63
2018-03-26T20:32:16.777Z,13.50
2018-03-26T20:34:44.331Z,14.97
2018-03-26T20:37:11.853Z,18.03
2018-03-26T20:39:39.403Z,14.73
2018-03-26T20:42:07.076Z,18.40
2018-03-26T20:44:34.650Z,14.63
2018-03-26T20:47:02.237Z,17.43
2018-03-26T20:49:29.760Z,16.27
2018-03-26T20:51:57.281Z,18.53
2018-03-26T20:54:24.807Z,18.40
2018-03-26T20:56:52.336Z,17.77
2018-03-26T20:59:19.858Z,18.30
2018-03-26T21:01:47.384Z,18.10
2018-03-26T21:04:14.939Z,19.40
2018-03-26T21:06:42.473Z,16.37
2018-03-26T21:09:10.007Z,18.83
2018-03-26T21:11:37.525Z,17.90
2018-03-26T21:14:05.061Z,16.23
2018-03-26T21:16:32.581Z,18.57
2018-03-26T21:19:00.102Z,15.73
2018-03-26T21:21:27.628Z,17.77
2018-03-26T21:23:55.154Z,16.40
2018-03-26T21:26:22.684Z,16.80
2018-03-26T21:28:50.210Z,15.97
2018-03-26T21:31:17.735Z,18.93
2018-03-26T21:33:45.259Z,16.97
2018-03-26T21:36:12.776Z,17.57
2018-03-26T21:38:40.301Z,18.90
2018-03-26T21:41:07.825Z,16.43
2018-03-26T21:43:35.349Z,17.33
2018-03-26T21:46:02.874Z,18.07
2018-03-26T21:48:30.406Z,18.17
2018-03-26T21:50:57.931Z,14.70
2018-03-26T21:53:25.466Z,17.40
2018-03-26T21:55:52.985Z,17.97
2018-03-26T21:58:20.520Z,16.20
2018-03-26T22:00:48.042Z,15.13
2018-03-26T22:03:15.573Z,17.50
2018-03-26T22:05:43.098Z,13.70
2018-03-26T22:08:10.644Z,19.17
2018-03-26T22:10:38.166Z,17.23
2018-03-26T22:13:05.702Z,16.77
2018-03-26T22:15:33.236Z,19.37
2018-03-26T22:18:00.773Z,16.57
2018-03-26T22:20:28.301Z,16.20
2018-03-26T22:22:55.833Z,16.73
2018-03-26T22:25:23.369Z,17.43
2018-03-26T22:27:50.898Z,16.80
2018-03-26T22:30:18.417Z,17.77
2018-03-26T22:32:45.933Z,16.50
2018-03-26T22:35:13.452Z,15.67
2018-03-26T22:37:40.995Z,17.63
2018-03-26T22:40:08.523Z,17.00
2018-03-26T22:42:36.061Z,16.17
2018-03-26T22:45:03.586Z,14.67
2018-03-26T22:47:31.118Z,16.80
2018-03-26T22:49:58.630Z,16.17
2018-03-26T22:52:26.171Z,14.90
2018-03-26T22:54:53.728Z,16.33
2018-03-26T22:57:21.245Z,16.67
2018-03-26T22:59:48.770Z,13.40
2018-03-26T23:02:16.293Z,13.83
2018-03-26T23:04:43.823Z,13.00
2018-03-26T23:07:11.377Z,13.67
2018-03-26T23:09:38.897Z,11.93
2018-03-26T23:12:06.425Z,11.83
2018-03-26T23:14:33.965Z,12.23
2018-03-26T23:17:01.487Z,13.93
2018-03-26T23:19:29.019Z,13.13
2018-03-26T23:21:56.537Z,12.93
2018-03-26T23:24:24.068Z,15.27
2018-03-26T23:26:51.597Z,11.70
2018-03-26T23:29:19.113Z,11.23
2018-03-26T23:31:46.641Z,10.73
2018-03-26T23:34:14.173Z,13.07
2018-03-26T23:36:41.693Z,11.40
2018-03-26T23:39:09.216Z,11.43
2018-03-26T23:41:36.752Z,9.00
2018-03-26T23:44:04.272Z,10.63
2018-03-26T23:46:31.792Z,9.07
2018-03-26T23:48:59.323Z,10.20
2018-03-26T23:51:26.829Z,10.37
2018-03-26T23:53:54.354Z,9.60
2018-03-26T23:56:21.889Z,9.63
2018-03-26T23:58:49.412Z,11.27
